createdAt,value
2023-05-04T00:00:27.753Z,101102.66
2023-05-04T00:02:57.129Z,101107.03
2023-05-04T00:05:26.873Z,101112.16
2023-05-04T00:07:56.184Z,101115.81
2023-05-04T00:10:25.198Z,101113.94
2023-05-04T00:12:54.232Z,101114.91
2023-05-04T00:15:24.884Z,101118.47
2023-05-04T00:17:55.095Z,101129.34
2023-05-04T00:20:24.300Z,101129.59
2023-05-04T00:22:53.453Z,101102.47
2023-05-04T00:25:23.220Z,101140.09
2023-05-04T00:27:52.275Z,101132.78
2023-05-04T00:30:21.664Z,101119.91
2023-05-04T00:32:52.696Z,101125.03
2023-05-04T00:35:21.677Z,101122.81
2023-05-04T00:37:51.848Z,101128.91
2023-05-04T00:40:21.562Z,101134.59
2023-05-04T00:42:50.817Z,101122.91
2023-05-04T00:45:21.024Z,101100.72
2023-05-04T00:47:52.079Z,101122.41
2023-05-04T00:50:21.825Z,101128.81
2023-05-04T00:52:51.986Z,101142.69
2023-05-04T00:55:22.085Z,101113.53
2023-05-04T00:57:52.415Z,101130.56
2023-05-04T01:00:21.945Z,101139.72
2023-05-04T01:02:52.477Z,101146.16
2023-05-04T01:05:21.755Z,101143.59
2023-05-04T01:08:00.352Z,101137.19
2023-05-04T01:10:36.507Z,101145.75
2023-05-04T01:13:09.760Z,101135.06
2023-05-04T01:15:39.790Z,101128.44
2023-05-04T01:18:10.753Z,101135.47
2023-05-04T01:20:39.988Z,101108.34
2023-05-04T01:23:11.041Z,101126.22
2023-05-04T01:25:46.774Z,101139.94
2023-05-04T01:28:20.484Z,101134.38
2023-05-04T01:30:53.252Z,101142.31
2023-05-04T01:33:23.217Z,101126.91
2023-05-04T01:35:52.650Z,101119.53
2023-05-04T01:38:23.211Z,101135.41
2023-05-04T01:40:52.442Z,101121.63
2023-05-04T01:43:21.329Z,101117.31
2023-05-04T01:45:50.624Z,101116.41
2023-05-04T01:48:19.733Z,101092.78
2023-05-04T01:50:49.321Z,101103.59
2023-05-04T01:53:18.522Z,101104.06
2023-05-04T01:55:49.270Z,101124.59
2023-05-04T01:58:19.791Z,101115.72
2023-05-04T02:00:49.287Z,101111.53
2023-05-04T02:03:18.556Z,101073.75
2023-05-04T02:05:47.963Z,101106.19
2023-05-04T02:08:18.642Z,101115.44
2023-05-04T02:10:49.167Z,101098.22
2023-05-04T02:13:18.236Z,101113.47
2023-05-04T02:15:47.348Z,101132.63
2023-05-04T02:18:16.460Z,101121.19
2023-05-04T02:20:45.529Z,101130.47
2023-05-04T02:23:16.657Z,101122.13
2023-05-04T02:25:45.793Z,101119.91
2023-05-04T02:28:16.271Z,101113.19
2023-05-04T02:30:45.190Z,101125.25
2023-05-04T02:33:14.487Z,101105.38
2023-05-04T02:35:44.259Z,101118.22
2023-05-04T02:38:13.397Z,101130.38
2023-05-04T02:40:42.582Z,101120.03
2023-05-04T02:43:11.903Z,101119.94
2023-05-04T02:45:42.520Z,101084.66
2023-05-04T02:48:11.525Z,101106.66
2023-05-04T02:50:41.003Z,101111.34
2023-05-04T02:53:09.972Z,101105.38
2023-05-04T02:55:39.225Z,101108.16
2023-05-04T02:58:08.452Z,101120.44
2023-05-04T03:00:37.456Z,101123.44
2023-05-04T03:03:08.002Z,101119.56
2023-05-04T03:05:37.192Z,101110.25
2023-05-04T03:08:06.560Z,101118.16
2023-05-04T03:10:35.628Z,101091.47
2023-05-04T03:13:06.320Z,101096.09
2023-05-04T03:15:35.455Z,101092.28
2023-05-04T03:18:05.162Z,100937.44
2023-05-04T03:20:35.771Z,101087.03
2023-05-04T03:23:05.011Z,101084.78
2023-05-04T03:25:33.942Z,101103.91
2023-05-04T03:28:03.220Z,101106.19
2023-05-04T03:30:32.189Z,101098.03
2023-05-04T03:33:04.226Z,101103.94
2023-05-04T03:35:33.866Z,101091.09
2023-05-04T03:38:06.861Z,101115.16
2023-05-04T03:40:36.054Z,101119.78
2023-05-04T03:43:05.317Z,101119.41
2023-05-04T03:45:34.434Z,101103.63
2023-05-04T03:48:04.296Z,101088.34
2023-05-04T03:50:33.624Z,101090.06
2023-05-04T03:53:02.941Z,101105.56
2023-05-04T03:55:33.422Z,101100.59
2023-05-04T03:58:02.530Z,101105.03
2023-05-04T04:00:31.800Z,101121.41
2023-05-04T04:03:10.581Z,101124.88
2023-05-04T04:05:40.343Z,101125.28
2023-05-04T04:08:09.546Z,101126.34
2023-05-04T04:10:39.879Z,101122.81
2023-05-04T04:13:08.863Z,101092.19
2023-05-04T04:15:38.266Z,101127.00
2023-05-04T04:18:07.521Z,101113.63
2023-05-04T04:20:36.498Z,101112.84
2023-05-04T04:23:05.652Z,101108.88
2023-05-04T04:25:36.222Z,101078.75
2023-05-04T04:28:06.963Z,101115.13
2023-05-04T04:30:35.953Z,101094.50
2023-05-04T04:33:06.162Z,101081.72
2023-05-04T04:35:35.269Z,101115.34
2023-05-04T04:38:05.107Z,101104.56
2023-05-04T04:40:34.297Z,101119.88
2023-05-04T04:43:03.360Z,101121.97
2023-05-04T04:45:34.093Z,101127.69
2023-05-04T04:48:03.933Z,101116.22
2023-05-04T04:50:33.634Z,101122.91
2023-05-04T04:53:02.990Z,101110.25
2023-05-04T04:55:32.735Z,101082.19
2023-05-04T04:58:01.982Z,101116.50
2023-05-04T05:00:31.613Z,101123.69
2023-05-04T05:03:03.216Z,101123.63
2023-05-04T05:05:32.640Z,101128.59
2023-05-04T05:08:02.478Z,101129.13
2023-05-04T05:10:32.139Z,101126.28
2023-05-04T05:13:01.520Z,101082.81
2023-05-04T05:15:30.539Z,101135.94
2023-05-04T05:18:01.529Z,101131.06
2023-05-04T05:20:31.114Z,101121.19
2023-05-04T05:23:00.677Z,101127.06
2023-05-04T05:25:29.683Z,101129.47
2023-05-04T05:27:58.848Z,101122.41
2023-05-04T05:30:28.659Z,101100.22
2023-05-04T05:32:57.733Z,101124.34
2023-05-04T05:35:28.436Z,101120.31
2023-05-04T05:37:57.703Z,101131.56
2023-05-04T05:40:27.021Z,101123.66
2023-05-04T05:42:56.379Z,101129.19
2023-05-04T05:45:25.471Z,101128.22
2023-05-04T05:47:54.567Z,101126.44
2023-05-04T05:50:25.041Z,101112.13
2023-05-04T05:52:58.366Z,101119.88
2023-05-04T05:55:30.891Z,101116.78
2023-05-04T05:57:59.864Z,101115.06
2023-05-04T06:00:29.337Z,101105.19
2023-05-04T06:02:58.591Z,101090.06
2023-05-04T06:05:27.810Z,101111.22
2023-05-04T06:07:58.266Z,101112.72
2023-05-04T06:10:27.572Z,101112.56
2023-05-04T06:12:56.810Z,101109.81
2023-05-04T06:15:26.031Z,101104.28
2023-05-04T06:17:55.449Z,101087.81
2023-05-04T06:20:26.232Z,101102.38
2023-05-04T06:22:58.630Z,101102.22
2023-05-04T06:25:28.243Z,101079.28
2023-05-04T06:27:58.937Z,101092.59
2023-05-04T06:30:28.082Z,101107.88
2023-05-04T06:32:57.372Z,101112.13
2023-05-04T06:35:26.437Z,101106.50
2023-05-04T06:37:55.480Z,101110.13
2023-05-04T06:40:27.963Z,101090.34
2023-05-04T06:42:58.853Z,101103.50
2023-05-04T06:45:28.265Z,101085.34
2023-05-04T06:47:57.968Z,101100.94
2023-05-04T06:50:27.920Z,101106.72
2023-05-04T06:53:05.676Z,101090.22
2023-05-04T06:55:37.187Z,101092.13
2023-05-04T06:58:06.321Z,101088.66
2023-05-04T07:00:36.330Z,101084.72
2023-05-04T07:03:05.604Z,101087.31
2023-05-04T07:05:36.991Z,101063.75
2023-05-04T07:08:06.440Z,101085.53
2023-05-04T07:10:36.854Z,101074.53
2023-05-04T07:13:06.122Z,101083.09
2023-05-04T07:15:35.949Z,101088.56
2023-05-04T07:18:05.733Z,101091.59
2023-05-04T07:20:34.805Z,101078.97
2023-05-04T07:23:05.154Z,101095.28
2023-05-04T07:25:36.414Z,101093.38
2023-05-04T07:28:06.236Z,101097.06
2023-05-04T07:30:35.533Z,101097.63
2023-05-04T07:33:05.041Z,101091.59
2023-05-04T07:35:34.156Z,101082.81
2023-05-04T07:38:04.078Z,101097.81
2023-05-04T07:40:33.269Z,101091.06
2023-05-04T07:43:07.604Z,101092.03
2023-05-04T07:45:37.172Z,101099.53
2023-05-04T07:48:11.328Z,101103.06
2023-05-04T07:50:42.108Z,101103.91
2023-05-04T07:53:11.526Z,101107.06
2023-05-04T07:55:40.853Z,101098.88
2023-05-04T07:58:16.834Z,101109.91
2023-05-04T08:00:46.011Z,101103.59
2023-05-04T08:03:15.145Z,101107.84
2023-05-04T08:05:44.251Z,101108.69
2023-05-04T08:08:13.381Z,101104.69
2023-05-04T08:10:42.437Z,101101.66
2023-05-04T08:13:13.283Z,101103.69
2023-05-04T08:15:42.931Z,101103.03
2023-05-04T08:18:12.178Z,101093.53
2023-05-04T08:20:42.115Z,101087.41
2023-05-04T08:23:11.447Z,101095.06
2023-05-04T08:25:40.562Z,101071.59
2023-05-04T08:28:09.876Z,101093.75
2023-05-04T08:30:40.365Z,101086.91
2023-05-04T08:33:09.907Z,101090.66
2023-05-04T08:35:38.944Z,101092.28
2023-05-04T08:38:08.996Z,101091.44
2023-05-04T08:40:41.604Z,101088.56
2023-05-04T08:43:11.102Z,101078.16
2023-05-04T08:45:41.569Z,101079.75
2023-05-04T08:48:11.407Z,101081.16
2023-05-04T08:50:40.506Z,101087.50
2023-05-04T08:53:15.106Z,101069.53
2023-05-04T08:55:48.570Z,101087.53
2023-05-04T08:58:20.179Z,101087.16
2023-05-04T09:00:51.608Z,101081.66
2023-05-04T09:03:21.537Z,101095.69
2023-05-04T09:05:52.656Z,101091.47
2023-05-04T09:08:22.379Z,101090.13
2023-05-04T09:10:51.588Z,101083.31
2023-05-04T09:13:20.994Z,101080.75
2023-05-04T09:15:59.313Z,101089.97
2023-05-04T09:18:38.036Z,101086.44
2023-05-04T09:21:07.699Z,101092.03
2023-05-04T09:23:47.869Z,101090.56
2023-05-04T09:26:27.637Z,101091.16
2023-05-04T09:28:56.755Z,101072.47
2023-05-04T09:31:28.468Z,101094.44
2023-05-04T09:33:59.087Z,101072.59
2023-05-04T09:36:28.714Z,101083.03
2023-05-04T09:38:57.689Z,101084.72
2023-05-04T09:41:34.610Z,101036.75
2023-05-04T09:44:04.715Z,101052.19
2023-05-04T09:46:36.638Z,101057.56
2023-05-04T09:49:06.084Z,101061.16
2023-05-04T09:51:35.761Z,101063.63
2023-05-04T09:54:06.456Z,101073.28
2023-05-04T09:56:42.117Z,101052.16
2023-05-04T09:59:11.811Z,101060.34
2023-05-04T10:01:44.702Z,101065.94
2023-05-04T10:04:13.778Z,101070.50
2023-05-04T10:06:45.053Z,101063.25
2023-05-04T10:09:15.835Z,101057.38
2023-05-04T10:11:45.880Z,101058.78
2023-05-04T10:14:15.555Z,101063.34
2023-05-04T10:16:55.505Z,101039.22
2023-05-04T10:19:45.252Z,101048.97
2023-05-04T10:22:25.022Z,101051.91
2023-05-04T10:25:27.794Z,101049.66
2023-05-04T10:28:08.799Z,101044.50
2023-05-04T10:30:40.134Z,101030.91
2023-05-04T10:33:11.172Z,101035.38
2023-05-04T10:35:52.146Z,101030.53
2023-05-04T10:38:21.519Z,101020.44
2023-05-04T10:40:53.949Z,101029.22
2023-05-04T10:43:24.774Z,101000.66
2023-05-04T10:45:54.124Z,101025.88
2023-05-04T10:48:35.313Z,101018.69
2023-05-04T10:51:04.814Z,101039.84
2023-05-04T10:53:34.658Z,101030.53
2023-05-04T10:56:06.891Z,101034.41
2023-05-04T10:58:36.258Z,101012.19
2023-05-04T11:01:13.161Z,101034.38
2023-05-04T11:03:44.044Z,101034.19
2023-05-04T11:06:23.461Z,101038.16
2023-05-04T11:09:01.625Z,101015.53
2023-05-04T11:11:31.143Z,101020.66
2023-05-04T11:14:00.454Z,101026.44
2023-05-04T11:16:29.560Z,101015.44
2023-05-04T11:19:12.558Z,101012.53
2023-05-04T11:21:41.997Z,101034.91
2023-05-04T11:24:11.612Z,101020.50
2023-05-04T11:26:48.290Z,101015.69
2023-05-04T11:29:19.461Z,101013.16
2023-05-04T11:31:58.272Z,100997.81
2023-05-04T11:34:31.416Z,101001.03
2023-05-04T11:37:00.726Z,100995.16
2023-05-04T11:39:34.337Z,100998.41
2023-05-04T11:42:10.114Z,100987.47
2023-05-04T11:44:41.006Z,100982.97
2023-05-04T11:47:10.590Z,100995.81
2023-05-04T11:49:41.921Z,100970.69
2023-05-04T11:52:12.296Z,100972.72
2023-05-04T11:54:57.022Z,100975.25
2023-05-04T11:57:26.343Z,100956.44
2023-05-04T11:59:56.608Z,100960.88
2023-05-04T12:02:27.253Z,100964.47
2023-05-04T12:05:01.533Z,100953.47
2023-05-04T12:07:30.828Z,100953.34
2023-05-04T12:10:00.292Z,100923.84
2023-05-04T12:12:37.297Z,100960.38
2023-05-04T12:15:07.747Z,100955.34
2023-05-04T12:17:43.682Z,100952.53
2023-05-04T12:20:25.020Z,100952.22
2023-05-04T12:22:54.439Z,100954.75
2023-05-04T12:25:24.212Z,100948.78
2023-05-04T12:27:53.685Z,100934.78
2023-05-04T12:30:23.154Z,100939.50
2023-05-04T12:32:55.623Z,100927.19
2023-05-04T12:35:27.183Z,100951.06
2023-05-04T12:37:56.733Z,100949.97
2023-05-04T12:40:28.955Z,100946.31
2023-05-04T12:42:58.632Z,100946.78
2023-05-04T12:45:27.786Z,100914.31
2023-05-04T12:47:57.384Z,100944.00
2023-05-04T12:50:52.625Z,100939.00
2023-05-04T12:53:58.258Z,100882.81
2023-05-04T12:56:30.198Z,100951.00
2023-05-04T12:59:02.779Z,100941.34
2023-05-04T13:01:35.199Z,100933.88
2023-05-04T13:04:04.626Z,100929.88
2023-05-04T13:06:35.452Z,100939.81
2023-05-04T13:09:06.132Z,100941.81
2023-05-04T13:11:35.753Z,100940.47
2023-05-04T13:14:12.713Z,100923.63
2023-05-04T13:16:49.926Z,100931.09
2023-05-04T13:19:29.126Z,100940.72
2023-05-04T13:22:04.258Z,100916.63
2023-05-04T13:24:35.720Z,100942.94
2023-05-04T13:27:05.443Z,100931.94
2023-05-04T13:29:34.734Z,100935.59
2023-05-04T13:32:06.679Z,100931.16
2023-05-04T13:34:37.952Z,100916.13
2023-05-04T13:37:08.899Z,100922.59
2023-05-04T13:39:42.325Z,100914.75
2023-05-04T13:42:13.305Z,100903.94
2023-05-04T13:44:44.875Z,100820.81
2023-05-04T13:47:14.456Z,100909.13
2023-05-04T13:49:44.029Z,100914.34
2023-05-04T13:52:15.209Z,100917.66
2023-05-04T13:54:44.585Z,100897.91
2023-05-04T13:57:19.286Z,100904.91
2023-05-04T14:00:02.867Z,100917.69
2023-05-04T14:02:40.211Z,100907.78
2023-05-04T14:05:10.399Z,100912.19
2023-05-04T14:07:43.915Z,100917.97
2023-05-04T14:10:16.323Z,100926.97
2023-05-04T14:12:46.063Z,100929.31
2023-05-04T14:15:22.802Z,100905.06
2023-05-04T14:17:52.842Z,100892.22
2023-05-04T14:20:23.658Z,100901.97
2023-05-04T14:22:54.363Z,100916.84
2023-05-04T14:25:27.160Z,100916.88
2023-05-04T14:27:58.734Z,100923.63
2023-05-04T14:30:28.010Z,100923.38
2023-05-04T14:32:58.453Z,100922.81
2023-05-04T14:35:27.942Z,100917.84
2023-05-04T14:37:58.363Z,100905.69
2023-05-04T14:40:29.037Z,100872.72
2023-05-04T14:43:01.111Z,100909.41
2023-05-04T14:45:30.728Z,100910.41
2023-05-04T14:48:02.555Z,100917.19
2023-05-04T14:50:32.141Z,100911.13
2023-05-04T14:53:02.903Z,100910.88
2023-05-04T14:55:33.610Z,100918.72
2023-05-04T14:58:05.750Z,100907.66
2023-05-04T15:00:35.675Z,100926.50
2023-05-04T15:03:05.864Z,100902.97
2023-05-04T15:05:37.547Z,100928.50
2023-05-04T15:08:08.943Z,100927.59
2023-05-04T15:10:39.896Z,100907.16
2023-05-04T15:13:10.529Z,100921.94
2023-05-04T15:15:41.382Z,100916.81
2023-05-04T15:18:13.689Z,100911.19
2023-05-04T15:20:45.969Z,100905.47
2023-05-04T15:26:03.755Z,100838.81
2023-05-04T15:29:10.019Z,100928.19
2023-05-04T15:31:43.024Z,100924.38
2023-05-04T15:34:12.662Z,100923.09
2023-05-04T15:36:45.574Z,100934.69
2023-05-04T15:39:19.351Z,100900.88
2023-05-04T15:41:49.457Z,100917.69
2023-05-04T15:44:21.044Z,100932.72
2023-05-04T15:46:53.815Z,100927.50
2023-05-04T15:49:23.605Z,100928.41
2023-05-04T15:51:53.674Z,100950.81
2023-05-04T15:54:29.302Z,100943.63
2023-05-04T15:56:58.677Z,100934.81
2023-05-04T15:59:30.435Z,100930.31
2023-05-04T16:02:00.035Z,100948.44
2023-05-04T16:04:33.516Z,100953.41
2023-05-04T16:07:04.174Z,100962.81
2023-05-04T16:09:37.018Z,100944.78
2023-05-04T16:12:09.128Z,100953.47
2023-05-04T16:14:39.822Z,100950.28
2023-05-04T16:17:13.876Z,100950.56
2023-05-04T16:19:46.758Z,100955.53
2023-05-04T16:22:18.853Z,100971.38
2023-05-04T16:24:51.244Z,100903.44
2023-05-04T16:27:24.197Z,100982.38
2023-05-04T16:30:00.196Z,100960.34
2023-05-04T16:32:37.020Z,100948.63
2023-05-04T16:35:08.125Z,100987.91
2023-05-04T16:38:01.477Z,100865.72
2023-05-04T16:40:39.983Z,100871.69
2023-05-04T16:43:20.580Z,100981.88
2023-05-04T16:45:54.939Z,100993.56
2023-05-04T16:48:28.216Z,100988.19
2023-05-04T16:51:06.045Z,100791.44
2023-05-04T16:53:57.319Z,100957.38
2023-05-04T16:56:32.053Z,100912.19
2023-05-04T16:59:21.952Z,100937.66
2023-05-04T17:02:15.927Z,100891.28
2023-05-04T17:04:49.751Z,100936.81
2023-05-04T17:07:37.804Z,100828.69
2023-05-04T17:10:26.044Z,100911.75
2023-05-04T17:13:02.283Z,101010.00
2023-05-04T17:15:37.232Z,100795.09
2023-05-04T17:18:09.103Z,100848.34
2023-05-04T17:20:43.391Z,100898.25
2023-05-04T17:23:16.308Z,101020.34
2023-05-04T17:25:47.369Z,101016.94
2023-05-04T17:28:18.423Z,101016.81
2023-05-04T17:30:48.399Z,101036.91
2023-05-04T17:33:20.161Z,100990.81
2023-05-04T17:35:50.778Z,101033.09
2023-05-04T17:38:20.371Z,101036.53
2023-05-04T17:40:50.321Z,101018.94
2023-05-04T17:43:21.144Z,100997.16
2023-05-04T17:45:55.513Z,101033.25
2023-05-04T17:48:25.214Z,101012.53
2023-05-04T17:50:54.690Z,101024.47
2023-05-04T17:53:24.624Z,101004.94
2023-05-04T17:55:54.191Z,100998.28
2023-05-04T17:58:27.524Z,100990.84
2023-05-04T18:01:13.206Z,100985.56
2023-05-04T18:03:43.373Z,100995.88
2023-05-04T18:06:13.352Z,100983.41
2023-05-04T18:08:48.048Z,100987.53
2023-05-04T18:11:21.748Z,101027.84
2023-05-04T18:13:53.784Z,100948.56
2023-05-04T18:16:24.160Z,101036.44
2023-05-04T18:18:59.844Z,100999.75
2023-05-04T18:21:37.783Z,100941.19
2023-05-04T18:24:16.746Z,101044.22
2023-05-04T18:26:57.155Z,100916.19
2023-05-04T18:29:28.127Z,101053.59
2023-05-04T18:32:09.171Z,101043.25
2023-05-04T18:34:40.619Z,101060.03
2023-05-04T18:37:12.213Z,101074.06
2023-05-04T18:39:41.987Z,100960.50
2023-05-04T18:42:15.508Z,101007.66
2023-05-04T18:44:49.467Z,101052.72
2023-05-04T18:47:23.194Z,101011.25
2023-05-04T18:49:56.416Z,100842.00
2023-05-04T18:52:26.436Z,101058.06
2023-05-04T18:54:56.224Z,101051.25
2023-05-04T18:57:25.701Z,101063.91
2023-05-04T18:59:57.068Z,101033.97
2023-05-04T19:02:30.314Z,101050.81
2023-05-04T19:04:59.480Z,101040.16
2023-05-04T19:07:39.366Z,101024.69
2023-05-04T19:10:11.013Z,100997.03
2023-05-04T19:12:40.380Z,101010.91
2023-05-04T19:15:11.691Z,101028.63
2023-05-04T19:17:41.029Z,101047.13
2023-05-04T19:20:11.685Z,101018.31
2023-05-04T19:22:41.173Z,101038.41
2023-05-04T19:25:17.741Z,101041.13
2023-05-04T19:27:53.884Z,101023.38
2023-05-04T19:30:25.969Z,101015.50
2023-05-04T19:32:59.042Z,101049.13
2023-05-04T19:35:31.319Z,101006.00
2023-05-04T19:38:01.614Z,101065.78
2023-05-04T19:40:33.042Z,101066.94
2023-05-04T19:43:04.166Z,101012.22
2023-05-04T19:45:39.262Z,101053.69
2023-05-04T19:48:21.788Z,101026.44
2023-05-04T19:50:50.751Z,101022.59
2023-05-04T19:53:20.316Z,101016.81
2023-05-04T19:55:50.105Z,101040.56
2023-05-04T19:58:20.723Z,101015.69
2023-05-04T20:00:55.180Z,101051.72
2023-05-04T20:03:27.327Z,101042.75
2023-05-04T20:05:57.487Z,101058.06
2023-05-04T20:08:28.803Z,101009.06
2023-05-04T20:11:02.555Z,101033.50
2023-05-04T20:13:32.602Z,101019.53
2023-05-04T20:16:08.522Z,100996.41
2023-05-04T20:18:38.374Z,100987.47
2023-05-04T20:21:09.000Z,100976.88
2023-05-04T20:23:40.525Z,101006.56
2023-05-04T20:26:11.164Z,101007.88
2023-05-04T20:28:40.685Z,101022.69
2023-05-04T20:31:14.151Z,101007.47
2023-05-04T20:33:43.495Z,101018.88
2023-05-04T20:36:13.208Z,101026.22
2023-05-04T20:38:43.014Z,101036.28
2023-05-04T20:41:13.095Z,101034.66
2023-05-04T20:43:47.542Z,100946.97
2023-05-04T20:46:23.662Z,101014.72
2023-05-04T20:48:53.636Z,101009.03
2023-05-04T20:51:28.086Z,100975.56
2023-05-04T20:53:57.312Z,100990.25
2023-05-04T20:56:26.592Z,100986.94
2023-05-04T20:58:56.099Z,100983.03
2023-05-04T21:01:26.996Z,100982.47
2023-05-04T21:04:01.068Z,100953.22
2023-05-04T21:06:31.370Z,100993.31
2023-05-04T21:09:13.735Z,100973.16
2023-05-04T21:11:43.555Z,100956.00
2023-05-04T21:14:16.734Z,101018.47
2023-05-04T21:16:47.209Z,100996.19
2023-05-04T21:19:18.825Z,100992.81
2023-05-04T21:21:48.404Z,100987.16
2023-05-04T21:24:17.625Z,100995.72
2023-05-04T21:26:48.615Z,101002.78
2023-05-04T21:29:17.942Z,100994.88
2023-05-04T21:31:48.653Z,101022.91
2023-05-04T21:34:20.469Z,101019.06
2023-05-04T21:36:49.933Z,101030.19
2023-05-04T21:39:19.480Z,101032.31
2023-05-04T21:41:48.796Z,101024.91
2023-05-04T21:44:20.440Z,101047.34
2023-05-04T21:46:52.717Z,101027.13
2023-05-04T21:49:22.543Z,100996.94
2023-05-04T21:51:51.924Z,100971.03
2023-05-04T21:54:23.999Z,100969.09
2023-05-04T21:56:54.411Z,100980.69
2023-05-04T21:59:23.986Z,100963.88
2023-05-04T22:01:54.954Z,100971.09
2023-05-04T22:04:24.671Z,100962.41
2023-05-04T22:06:54.118Z,101015.38
2023-05-04T22:09:23.385Z,100997.91
2023-05-04T22:11:53.746Z,101032.91
2023-05-04T22:14:37.014Z,101030.66
2023-05-04T22:17:07.944Z,101044.53
2023-05-04T22:19:38.276Z,101032.59
2023-05-04T22:22:07.693Z,101036.31
2023-05-04T22:24:37.476Z,101042.56
2023-05-04T22:27:06.512Z,101046.00
2023-05-04T22:29:35.935Z,101043.38
2023-05-04T22:32:05.075Z,101035.00
2023-05-04T22:34:35.738Z,101026.50
2023-05-04T22:37:05.113Z,101035.94
2023-05-04T22:39:34.125Z,101020.47
2023-05-04T22:42:03.433Z,101017.38
2023-05-04T22:44:32.500Z,101007.19
2023-05-04T22:47:04.382Z,100993.81
2023-05-04T22:49:33.672Z,101001.56
2023-05-04T22:52:04.079Z,100999.00
2023-05-04T22:54:33.116Z,100994.81
2023-05-04T22:57:02.308Z,100945.97
2023-05-04T22:59:31.946Z,100956.56
2023-05-04T23:02:01.113Z,100979.81
2023-05-04T23:04:32.807Z,100990.03
2023-05-04T23:07:03.105Z,100993.88
2023-05-04T23:09:33.223Z,100986.88
2023-05-04T23:12:04.832Z,100991.13
2023-05-04T23:14:36.276Z,100998.38
2023-05-04T23:17:05.495Z,100987.13
2023-05-04T23:19:34.881Z,100973.41
2023-05-04T23:22:05.837Z,101000.13
2023-05-04T23:24:35.206Z,100997.41
2023-05-04T23:27:04.355Z,100991.13
2023-05-04T23:29:33.632Z,100993.66
2023-05-04T23:32:02.731Z,100964.78
2023-05-04T23:34:32.101Z,100983.00
2023-05-04T23:37:01.773Z,100984.31
2023-05-04T23:39:32.008Z,100974.38
2023-05-04T23:42:01.124Z,100986.16
2023-05-04T23:44:30.253Z,100985.78
2023-05-04T23:46:59.352Z,100955.94
2023-05-04T23:49:28.436Z,100964.66
2023-05-04T23:51:57.390Z,100968.91
2023-05-04T23:54:26.416Z,100969.44
2023-05-04T23:56:58.799Z,100975.72
2023-05-04T23:59:27.822Z,100955.78
